Time;durP1;ratioP1;P1;durP2;ratioP2;P2;SDS_P1;SDS_P2;PMS_P1;PMS_P2;Temp;Humidity;BMP_temperature;BMP_pressure;BME280_temperature;BME280_humidity;BME280_pressure;Samples;Min_cycle;Max_cycle;Signal;HPM_P1;HPM_P2
2023/12/12 00:02:19;;;;;;;8.82;3.00;;;5.40;99.90;;;;;;5057998;28;20049;-73
2023/12/12 00:04:44;;;;;;;9.38;2.78;;;5.40;99.90;;;;;;5027238;28;20040;-73
2023/12/12 00:07:10;;;;;;;8.75;3.05;;;5.40;99.90;;;;;;5060846;28;20078;-73
2023/12/12 00:09:35;;;;;;;16.13;3.22;;;5.40;99.90;;;;;;5066543;28;20532;-73
2023/12/12 00:12:01;;;;;;;10.70;3.17;;;5.40;99.90;;;;;;5064526;28;20397;-73
2023/12/12 00:14:26;;;;;;;8.35;3.08;;;5.40;99.90;;;;;;5049614;28;20050;-73
2023/12/12 00:16:52;;;;;;;10.40;3.40;;;5.40;99.90;;;;;;5059524;28;20047;-73
2023/12/12 00:19:17;;;;;;;8.90;3.40;;;5.40;99.90;;;;;;5048231;28;20128;-73
2023/12/12 00:21:43;;;;;;;11.65;4.00;;;5.40;99.90;;;;;;5049804;28;20090;-73
2023/12/12 00:24:09;;;;;;;11.77;3.90;;;5.40;99.90;;;;;;5065755;28;20508;-73
2023/12/12 00:26:35;;;;;;;11.15;3.72;;;5.40;99.90;;;;;;5031142;28;20046;-73
2023/12/12 00:29:01;;;;;;;10.82;3.75;;;5.40;99.90;;;;;;5063986;28;20032;-73
2023/12/12 00:31:28;;;;;;;11.35;3.80;;;5.50;99.90;;;;;;5066282;28;20028;-73
2023/12/12 00:33:54;;;;;;;11.23;3.38;;;5.30;99.90;;;;;;5060253;28;20382;-73
2023/12/12 00:36:19;;;;;;;11.35;4.22;;;5.30;99.90;;;;;;5065653;28;20025;-73
2023/12/12 00:38:45;;;;;;;11.05;3.95;;;5.30;99.90;;;;;;5048162;28;20037;-73
2023/12/12 00:41:10;;;;;;;12.05;3.92;;;5.30;99.90;;;;;;5048339;28;20041;-73
2023/12/12 00:43:39;;;;;;;9.23;3.60;;;5.30;99.90;;;;;;5042327;28;20186;-73
2023/12/12 00:46:06;;;;;;;11.52;3.78;;;5.30;99.90;;;;;;5059361;28;20055;-73
2023/12/12 00:48:35;;;;;;;10.82;3.92;;;5.30;99.90;;;;;;5048414;28;20497;-73
2023/12/12 00:51:01;;;;;;;12.38;3.67;;;5.30;99.90;;;;;;5056419;28;20046;-73
2023/12/12 00:53:27;;;;;;;10.93;3.40;;;5.30;99.90;;;;;;5059962;28;20033;-73
2023/12/12 00:55:53;;;;;;;11.57;3.47;;;5.20;99.90;;;;;;5069910;28;20036;-73
2023/12/12 00:58:18;;;;;;;10.25;3.38;;;5.20;99.90;;;;;;5062238;28;20066;-73
2023/12/12 01:00:45;;;;;;;9.80;3.70;;;5.20;99.90;;;;;;5052554;28;20556;-73
2023/12/12 01:03:12;;;;;;;7.70;3.30;;;5.20;99.90;;;;;;5040874;28;20455;-73
2023/12/12 01:05:38;;;;;;;10.98;3.50;;;5.20;99.90;;;;;;5040193;28;20045;-73
2023/12/12 01:08:04;;;;;;;11.85;3.78;;;5.20;99.90;;;;;;5051340;28;20033;-73
2023/12/12 01:10:30;;;;;;;10.43;3.85;;;5.20;99.90;;;;;;5061876;28;20043;-73
2023/12/12 01:12:55;;;;;;;7.38;3.30;;;5.20;99.90;;;;;;5069048;28;20292;-73
2023/12/12 01:15:21;;;;;;;6.47;3.63;;;5.10;99.90;;;;;;5062134;28;20113;-73
2023/12/12 01:17:46;;;;;;;7.25;3.40;;;5.10;99.90;;;;;;5044416;28;20084;-73
2023/12/12 01:20:12;;;;;;;6.32;3.30;;;5.10;99.90;;;;;;5043947;28;20052;-73
2023/12/12 01:22:38;;;;;;;8.05;3.67;;;5.00;99.90;;;;;;5071429;28;20036;-74
2023/12/12 01:25:04;;;;;;;7.57;2.90;;;5.00;99.90;;;;;;5046204;28;20504;-73
2023/12/12 01:27:30;;;;;;;6.60;3.17;;;5.00;99.90;;;;;;5044089;28;20083;-73
2023/12/12 01:29:55;;;;;;;8.38;3.25;;;5.00;99.90;;;;;;5053497;28;20421;-73
2023/12/12 01:32:28;;;;;;;9.43;3.47;;;5.00;99.90;;;;;;5045090;28;20029;-73
2023/12/12 01:34:54;;;;;;;12.35;3.50;;;5.00;99.90;;;;;;5051367;28;20052;-73
2023/12/12 01:37:22;;;;;;;9.30;3.20;;;5.00;99.90;;;;;;5044857;28;20033;-74
2023/12/12 01:39:48;;;;;;;10.80;3.53;;;5.00;99.90;;;;;;5055967;28;20127;-73
2023/12/12 01:42:13;;;;;;;7.28;3.65;;;4.90;99.90;;;;;;5061913;28;20053;-73
2023/12/12 01:44:39;;;;;;;10.35;3.50;;;4.90;99.90;;;;;;5045475;28;20037;-73
2023/12/12 01:47:05;;;;;;;8.73;3.25;;;4.90;99.90;;;;;;5044453;28;20497;-73
2023/12/12 01:49:31;;;;;;;6.30;3.35;;;4.90;99.90;;;;;;5026685;28;20124;-73
2023/12/12 01:51:57;;;;;;;8.90;3.38;;;4.80;99.90;;;;;;5050305;28;20154;-73
2023/12/12 01:54:23;;;;;;;6.65;3.33;;;4.80;99.90;;;;;;5060720;28;20042;-73
2023/12/12 01:56:51;;;;;;;8.88;4.05;;;4.70;99.90;;;;;;5068283;28;20066;-73
2023/12/12 01:59:18;;;;;;;7.78;3.35;;;4.70;99.90;;;;;;5049835;28;20091;-73
2023/12/12 02:01:44;;;;;;;8.73;3.80;;;4.70;99.90;;;;;;5064260;28;20049;-73
2023/12/12 02:04:11;;;;;;;7.82;3.95;;;4.70;99.90;;;;;;5048664;28;20054;-74
2023/12/12 02:06:36;;;;;;;8.32;3.60;;;4.70;99.90;;;;;;5044892;28;20044;-73
2023/12/12 02:09:05;;;;;;;11.10;4.18;;;4.70;99.90;;;;;;5063022;28;20044;-73
2023/12/12 02:11:38;;;;;;;12.10;4.15;;;4.30;99.90;;;;;;5043850;28;20043;-73
2023/12/12 02:14:04;;;;;;;10.48;4.60;;;4.80;99.90;;;;;;5055196;28;20071;-73
2023/12/12 02:16:30;;;;;;;9.90;4.40;;;4.80;99.90;;;;;;5028452;28;20064;-73
2023/12/12 02:18:55;;;;;;;11.35;4.57;;;4.80;99.90;;;;;;5046675;28;20072;-73
2023/12/12 02:21:21;;;;;;;14.10;5.10;;;4.90;99.90;;;;;;5064581;28;20044;-73
2023/12/12 02:23:47;;;;;;;10.40;4.78;;;4.80;99.90;;;;;;5045414;28;20124;-73
2023/12/12 02:26:15;;;;;;;12.63;4.90;;;4.80;99.90;;;;;;5064147;28;20025;-73
2023/12/12 02:28:41;;;;;;;8.85;4.35;;;4.80;99.90;;;;;;5043170;28;20449;-73
2023/12/12 02:31:06;;;;;;;10.48;4.13;;;4.80;99.90;;;;;;5060291;28;20041;-73
2023/12/12 02:33:32;;;;;;;9.50;4.28;;;5.60;99.90;;;;;;5060169;28;20128;-73
2023/12/12 02:35:59;;;;;;;9.15;4.80;;;4.80;99.90;;;;;;5023559;28;20028;-72
2023/12/12 02:38:25;;;;;;;10.85;4.05;;;4.80;99.90;;;;;;5055503;28;20078;-73
2023/12/12 02:40:50;;;;;;;10.85;4.20;;;4.80;99.90;;;;;;5062024;28;20041;-73
2023/12/12 02:43:16;;;;;;;9.68;4.53;;;4.80;99.90;;;;;;5063930;28;20102;-73
2023/12/12 02:45:41;;;;;;;10.35;4.00;;;4.80;99.90;;;;;;5060629;28;20098;-73
2023/12/12 02:48:12;;;;;;;10.00;4.45;;;4.80;99.90;;;;;;5045928;28;20029;-73
2023/12/12 02:50:38;;;;;;;15.45;5.30;;;4.80;99.90;;;;;;5061210;28;20389;-73
2023/12/12 02:53:03;;;;;;;12.27;4.97;;;4.80;99.90;;;;;;5060318;28;20025;-73
2023/12/12 02:55:29;;;;;;;8.32;4.55;;;4.80;99.90;;;;;;5060856;28;20032;-73
2023/12/12 02:57:54;;;;;;;13.15;4.60;;;4.80;99.90;;;;;;5060743;28;20036;-73
2023/12/12 03:00:20;;;;;;;9.68;5.15;;;4.80;99.90;;;;;;5040561;28;20424;-73
2023/12/12 03:02:46;;;;;;;11.60;5.00;;;4.80;99.90;;;;;;5040968;28;20128;-73
2023/12/12 03:05:11;;;;;;;10.30;4.72;;;4.70;99.90;;;;;;5065931;28;20039;-73
2023/12/12 03:07:37;;;;;;;14.20;4.88;;;5.10;99.90;;;;;;5042580;28;20157;-73
2023/12/12 03:10:03;;;;;;;9.82;4.82;;;4.70;99.90;;;;;;5042908;28;20144;-73
2023/12/12 03:12:29;;;;;;;11.88;5.00;;;4.70;99.90;;;;;;5064681;28;20182;-73
2023/12/12 03:14:54;;;;;;;10.65;5.20;;;4.70;99.90;;;;;;5056824;28;20151;-73
2023/12/12 03:17:20;;;;;;;10.15;5.57;;;4.70;99.90;;;;;;5065930;28;20500;-74
2023/12/12 03:19:51;;;;;;;10.93;5.40;;;4.70;99.90;;;;;;5057520;28;20048;-73
2023/12/12 03:22:17;;;;;;;11.48;5.50;;;4.50;99.90;;;;;;5060047;28;20046;-73
2023/12/12 03:24:42;;;;;;;13.02;5.60;;;4.80;99.90;;;;;;5043875;28;20040;-73
2023/12/12 03:27:08;;;;;;;12.98;6.32;;;4.80;99.90;;;;;;5046367;28;20029;-73
2023/12/12 03:29:34;;;;;;;15.57;6.15;;;4.80;99.90;;;;;;5062767;28;20049;-73
2023/12/12 03:32:00;;;;;;;12.80;5.97;;;4.80;99.90;;;;;;5048328;28;20043;-73
2023/12/12 03:34:25;;;;;;;12.82;6.18;;;4.90;99.90;;;;;;5061516;28;20041;-73
2023/12/12 03:36:51;;;;;;;14.38;6.63;;;4.80;99.90;;;;;;5046443;28;20123;-73
2023/12/12 03:39:16;;;;;;;14.13;5.55;;;4.90;99.90;;;;;;5045796;28;20037;-73
2023/12/12 03:41:43;;;;;;;12.93;5.32;;;4.90;99.90;;;;;;5064073;28;20119;-73
2023/12/12 03:44:08;;;;;;;11.85;5.32;;;4.80;99.90;;;;;;5050958;28;20036;-73
2023/12/12 03:46:34;;;;;;;13.07;5.65;;;4.80;99.90;;;;;;5093271;22;20052;-77
2023/12/12 03:49:00;;;;;;;11.35;5.25;;;4.80;99.90;;;;;;5056418;28;20131;-77
2023/12/12 03:51:25;;;;;;;15.30;5.85;;;4.80;99.90;;;;;;5056734;28;20051;-77
2023/12/12 03:53:51;;;;;;;10.45;5.00;;;4.90;99.90;;;;;;5056976;28;20040;-76
2023/12/12 03:56:16;;;;;;;12.05;4.97;;;4.90;99.90;;;;;;5054696;28;20601;-77
2023/12/12 03:58:42;;;;;;;19.77;8.75;;;4.90;99.90;;;;;;5040278;28;20551;-77
2023/12/12 04:01:07;;;;;;;25.42;9.27;;;4.90;99.90;;;;;;5040840;28;20698;-77
2023/12/12 04:03:33;;;;;;;19.38;8.50;;;5.00;99.90;;;;;;5041673;28;20044;-77
2023/12/12 04:06:02;;;;;;;18.13;8.93;;;5.10;99.90;;;;;;5029160;28;20396;-77
2023/12/12 04:08:28;;;;;;;20.15;8.52;;;5.10;99.90;;;;;;5033211;28;20409;-77
2023/12/12 04:10:53;;;;;;;21.70;8.63;;;5.10;99.90;;;;;;5036172;28;20045;-78
2023/12/12 04:13:19;;;;;;;18.75;8.23;;;5.10;99.90;;;;;;5036409;28;20046;-77
2023/12/12 04:15:44;;;;;;;18.08;7.60;;;5.10;99.90;;;;;;5046319;28;20132;-77
2023/12/12 04:18:10;;;;;;;18.48;7.47;;;5.10;99.90;;;;;;5041375;28;20076;-77
2023/12/12 04:20:35;;;;;;;17.38;7.45;;;5.10;99.90;;;;;;5035790;28;20065;-77
2023/12/12 04:23:01;;;;;;;19.98;8.70;;;5.10;99.90;;;;;;5036445;28;20094;-77
2023/12/12 04:25:27;;;;;;;18.38;8.57;;;5.20;99.90;;;;;;5036237;28;20037;-77
2023/12/12 04:27:53;;;;;;;18.30;8.77;;;5.20;99.90;;;;;;5036519;28;20045;-77
2023/12/12 04:30:18;;;;;;;21.02;9.50;;;5.20;99.90;;;;;;5035688;28;20382;-77
2023/12/12 04:32:44;;;;;;;18.08;8.10;;;5.20;99.90;;;;;;5036331;28;20382;-77
2023/12/12 04:35:10;;;;;;;17.38;8.90;;;5.30;99.90;;;;;;5030508;28;20675;-77
2023/12/12 04:37:36;;;;;;;18.92;9.45;;;5.30;99.90;;;;;;5035638;28;20032;-77
2023/12/12 04:40:02;;;;;;;18.38;9.13;;;5.30;99.90;;;;;;5040902;28;20522;-77
2023/12/12 04:42:28;;;;;;;22.02;9.50;;;5.30;99.90;;;;;;5036327;28;20102;-77
2023/12/12 04:44:53;;;;;;;21.02;9.70;;;5.40;99.90;;;;;;5035769;28;20052;-77
2023/12/12 04:47:19;;;;;;;17.45;8.13;;;5.40;99.90;;;;;;5035729;28;20065;-77
2023/12/12 04:49:44;;;;;;;17.05;7.88;;;5.40;99.90;;;;;;5034383;28;20045;-78
2023/12/12 04:52:10;;;;;;;14.93;7.68;;;5.40;99.90;;;;;;5034924;28;20118;-76
2023/12/12 04:54:36;;;;;;;14.95;7.57;;;5.40;99.90;;;;;;5035863;28;20041;-76
2023/12/12 04:57:01;;;;;;;16.10;6.85;;;5.40;99.90;;;;;;5035597;28;20041;-77
2023/12/12 04:59:27;;;;;;;16.80;7.68;;;5.50;99.90;;;;;;5018148;28;20485;-78
2023/12/12 05:01:52;;;;;;;18.38;7.85;;;5.50;99.90;;;;;;5033175;28;20131;-77
2023/12/12 05:04:18;;;;;;;18.63;7.60;;;5.50;99.90;;;;;;5031443;28;20033;-77
2023/12/12 05:06:43;;;;;;;12.82;6.85;;;5.50;99.90;;;;;;5035606;28;20099;-77
2023/12/12 05:09:09;;;;;;;13.45;7.63;;;5.50;99.90;;;;;;5030135;28;20115;-78
2023/12/12 05:11:36;;;;;;;17.98;9.07;;;5.60;99.90;;;;;;5030107;28;20502;-78
2023/12/12 05:14:04;;;;;;;24.58;10.40;;;5.60;99.90;;;;;;5027441;28;20045;-77
2023/12/12 05:16:30;;;;;;;20.70;9.48;;;5.60;99.90;;;;;;5031222;28;20049;-77
2023/12/12 05:18:55;;;;;;;24.33;10.93;;;5.60;99.90;;;;;;5014511;28;20043;-77
2023/12/12 05:21:21;;;;;;;30.27;12.75;;;5.60;99.90;;;;;;5040719;28;20116;-77
2023/12/12 05:23:50;;;;;;;30.45;13.13;;;5.70;99.90;;;;;;5032702;28;20049;-77
2023/12/12 05:26:18;;;;;;;33.90;14.32;;;5.80;99.90;;;;;;5045731;28;20086;-78
2023/12/12 05:28:46;;;;;;;38.95;15.65;;;5.80;99.90;;;;;;5027933;28;20736;-77
2023/12/12 05:31:12;;;;;;;31.38;14.88;;;5.80;99.90;;;;;;5027551;28;20397;-77
2023/12/12 05:33:38;;;;;;;40.28;16.00;;;5.90;99.90;;;;;;5034680;28;20116;-77
2023/12/12 05:36:04;;;;;;;49.03;18.60;;;5.90;99.90;;;;;;5034898;28;20041;-78
2023/12/12 05:38:30;;;;;;;42.05;18.65;;;6.00;99.90;;;;;;5029652;28;20135;-77
2023/12/12 05:40:56;;;;;;;45.70;18.58;;;6.00;99.90;;;;;;5028258;28;20564;-77
2023/12/12 05:43:22;;;;;;;43.60;18.50;;;6.00;99.90;;;;;;5028338;28;20040;-76
2023/12/12 05:45:47;;;;;;;43.33;20.40;;;6.10;99.90;;;;;;5024879;28;20128;-77
2023/12/12 05:48:13;;;;;;;47.75;19.88;;;6.10;99.90;;;;;;5034730;28;20032;-77
2023/12/12 05:50:39;;;;;;;38.83;18.60;;;6.10;99.90;;;;;;5025350;28;20045;-77
2023/12/12 05:53:04;;;;;;;45.42;20.13;;;6.10;99.90;;;;;;5031940;28;20469;-77
2023/12/12 05:55:30;;;;;;;47.65;19.95;;;6.10;99.90;;;;;;5027761;28;20505;-77
2023/12/12 05:57:55;;;;;;;43.08;19.60;;;6.10;99.90;;;;;;5031055;28;20049;-77
2023/12/12 06:00:21;;;;;;;45.95;20.02;;;6.10;99.90;;;;;;5027666;28;20036;-77
2023/12/12 06:02:47;;;;;;;48.42;20.90;;;6.10;99.90;;;;;;5019633;28;20069;-77
2023/12/12 06:05:13;;;;;;;49.13;21.20;;;6.10;99.90;;;;;;5032244;28;20045;-79
2023/12/12 06:07:38;;;;;;;47.42;21.10;;;6.20;99.90;;;;;;5027557;28;20039;-76
2023/12/12 06:10:05;;;;;;;56.47;23.70;;;6.10;99.90;;;;;;5028264;28;20044;-77
2023/12/12 06:12:31;;;;;;;50.55;22.00;;;6.20;99.90;;;;;;5034484;28;20052;-78
2023/12/12 06:14:57;;;;;;;55.17;21.90;;;6.20;99.90;;;;;;5034341;28;20045;-77
2023/12/12 06:17:23;;;;;;;51.95;21.15;;;6.20;99.90;;;;;;5034449;28;20044;-77
2023/12/12 06:19:49;;;;;;;50.00;22.75;;;6.20;99.90;;;;;;5025105;28;20053;-77
2023/12/12 06:22:15;;;;;;;53.72;21.88;;;6.30;99.90;;;;;;5033151;28;20044;-77
2023/12/12 06:24:40;;;;;;;46.95;22.10;;;6.30;99.90;;;;;;5033116;28;20446;-77
2023/12/12 06:27:06;;;;;;;59.72;22.00;;;6.30;99.90;;;;;;5023753;28;20127;-77
2023/12/12 06:29:32;;;;;;;47.30;21.88;;;6.30;99.90;;;;;;5025482;28;20080;-77
2023/12/12 06:31:58;;;;;;;49.65;22.25;;;6.20;99.90;;;;;;5017196;28;20595;-77
2023/12/12 06:34:23;;;;;;;48.70;21.05;;;6.30;99.90;;;;;;5029968;28;20115;-78
2023/12/12 06:36:49;;;;;;;50.60;21.60;;;6.20;99.90;;;;;;5012066;28;20045;-77
2023/12/12 06:39:15;;;;;;;44.45;21.50;;;6.20;99.90;;;;;;5027247;28;20470;-77
2023/12/12 06:41:40;;;;;;;49.10;21.00;;;6.20;99.90;;;;;;5023262;28;20513;-77
2023/12/12 06:44:06;;;;;;;40.63;20.25;;;6.20;99.90;;;;;;5033570;28;20046;-77
2023/12/12 06:46:32;;;;;;;48.90;20.77;;;6.20;99.90;;;;;;5027322;28;20098;-77
2023/12/12 06:48:58;;;;;;;50.25;22.08;;;6.20;99.90;;;;;;5025972;28;20052;-77
2023/12/12 06:51:23;;;;;;;42.85;20.33;;;6.10;99.90;;;;;;5033334;28;20040;-77
2023/12/12 06:53:49;;;;;;;47.90;21.80;;;6.10;99.90;;;;;;5032601;28;20045;-77
2023/12/12 06:56:14;;;;;;;45.78;22.10;;;6.10;99.90;;;;;;5033438;28;20079;-77
2023/12/12 06:58:43;;;;;;;42.60;20.70;;;6.10;99.90;;;;;;5033555;28;20084;-78
2023/12/12 07:01:09;;;;;;;41.38;21.75;;;6.00;99.90;;;;;;5033174;28;20036;-77
2023/12/12 07:03:34;;;;;;;44.38;21.80;;;6.10;99.90;;;;;;5033517;28;20054;-78
2023/12/12 07:06:02;;;;;;;38.10;19.98;;;6.10;99.90;;;;;;5026126;28;20189;-76
2023/12/12 07:08:28;;;;;;;49.67;22.40;;;6.10;99.90;;;;;;5049462;28;20090;-76
2023/12/12 07:10:53;;;;;;;45.47;21.17;;;6.00;99.90;;;;;;5035305;28;20057;-78
2023/12/12 07:13:19;;;;;;;49.50;21.60;;;6.00;99.90;;;;;;5038064;28;20033;-78
2023/12/12 07:15:44;;;;;;;42.17;20.88;;;6.00;99.90;;;;;;5034237;28;20056;-79
2023/12/12 07:18:11;;;;;;;39.78;21.10;;;6.00;99.90;;;;;;5022238;28;20039;-76
2023/12/12 07:20:37;;;;;;;38.10;20.90;;;5.90;99.90;;;;;;5033675;28;20036;-77
2023/12/12 07:23:04;;;;;;;38.38;21.23;;;5.90;99.90;;;;;;5030090;28;20044;-78
2023/12/12 07:25:30;;;;;;;43.33;21.58;;;5.90;99.90;;;;;;5027306;28;20041;-77
2023/12/12 07:27:56;;;;;;;45.70;20.90;;;5.80;99.90;;;;;;5032729;28;20083;-77
2023/12/12 07:30:21;;;;;;;42.97;21.42;;;5.80;99.90;;;;;;5029858;28;20505;-78
2023/12/12 07:32:47;;;;;;;43.00;21.70;;;5.80;99.90;;;;;;5027258;28;20111;-78
2023/12/12 07:35:12;;;;;;;42.20;22.20;;;5.80;99.90;;;;;;5024753;28;20041;-77
2023/12/12 07:37:38;;;;;;;45.13;21.92;;;5.80;99.90;;;;;;5033086;28;20555;-77
2023/12/12 07:40:04;;;;;;;36.97;22.00;;;5.80;99.90;;;;;;5052385;28;20072;-77
2023/12/12 07:42:30;;;;;;;43.40;22.45;;;5.80;99.90;;;;;;5025652;28;20045;-78
2023/12/12 07:44:56;;;;;;;44.97;21.70;;;5.80;99.90;;;;;;5031782;28;20124;-78
2023/12/12 07:47:22;;;;;;;39.13;21.88;;;5.70;99.90;;;;;;5048854;28;20048;-78
2023/12/12 07:49:47;;;;;;;45.72;22.08;;;5.80;99.90;;;;;;5042283;28;20042;-78
2023/12/12 07:52:13;;;;;;;36.65;20.45;;;5.80;99.90;;;;;;5026667;28;20045;-77
2023/12/12 07:54:39;;;;;;;41.90;20.67;;;5.70;99.90;;;;;;5029401;28;20041;-78
2023/12/12 07:57:05;;;;;;;41.72;21.75;;;5.70;99.90;;;;;;5020080;28;20513;-78
2023/12/12 07:59:32;;;;;;;42.33;22.63;;;5.70;99.90;;;;;;5019756;28;20246;-79
2023/12/12 08:01:59;;;;;;;44.13;22.77;;;5.70;99.90;;;;;;5026401;28;20591;-78
2023/12/12 08:04:25;;;;;;;39.42;21.15;;;5.70;99.90;;;;;;5031570;28;20045;-79
2023/12/12 08:06:50;;;;;;;42.75;21.50;;;5.70;99.90;;;;;;5025614;28;20037;-78
2023/12/12 08:09:16;;;;;;;44.95;21.92;;;5.70;99.90;;;;;;5024571;28;20044;-78
2023/12/12 08:11:41;;;;;;;41.90;22.42;;;5.70;99.90;;;;;;5046752;28;20175;-79
2023/12/12 08:14:07;;;;;;;41.47;21.00;;;5.70;99.90;;;;;;5027644;28;20034;-77
2023/12/12 08:16:32;;;;;;;34.78;20.10;;;5.70;99.90;;;;;;5023151;28;20033;-77
2023/12/12 08:18:58;;;;;;;43.40;21.10;;;5.60;99.90;;;;;;5026339;28;20060;-76
2023/12/12 08:21:23;;;;;;;38.38;21.05;;;5.60;99.90;;;;;;5025602;28;20028;-77
2023/12/12 08:23:49;;;;;;;38.85;20.52;;;5.60;99.90;;;;;;5023602;28;20041;-75
2023/12/12 08:26:15;;;;;;;41.03;21.77;;;5.60;99.90;;;;;;5031590;28;20037;-76
2023/12/12 08:28:41;;;;;;;38.08;22.55;;;5.60;99.90;;;;;;5028246;28;20041;-76
2023/12/12 08:31:06;;;;;;;40.70;22.90;;;5.60;99.90;;;;;;5029917;28;20417;-77
2023/12/12 08:33:35;;;;;;;41.75;23.10;;;5.50;99.90;;;;;;5027839;28;20448;-77
2023/12/12 08:36:01;;;;;;;43.88;25.15;;;5.60;99.90;;;;;;5034075;28;20689;-77
2023/12/12 08:38:26;;;;;;;46.92;24.38;;;5.60;99.90;;;;;;5044448;28;20039;-75
2023/12/12 08:40:52;;;;;;;49.92;25.52;;;5.60;99.90;;;;;;5013879;28;20037;-75
2023/12/12 08:43:17;;;;;;;48.78;25.08;;;5.60;99.90;;;;;;5035408;28;20045;-75
2023/12/12 08:45:43;;;;;;;53.72;26.25;;;5.70;99.90;;;;;;5035587;28;20043;-75
2023/12/12 08:48:09;;;;;;;48.05;25.83;;;5.70;99.90;;;;;;5018004;28;20029;-76
2023/12/12 08:50:35;;;;;;;50.05;26.35;;;5.70;99.90;;;;;;5015778;28;20444;-75
2023/12/12 08:53:03;;;;;;;48.13;25.30;;;5.80;99.90;;;;;;5054097;28;20036;-75
2023/12/12 08:55:28;;;;;;;44.28;26.48;;;5.80;99.90;;;;;;5034778;28;20041;-75
2023/12/12 08:57:54;;;;;;;46.25;26.67;;;5.80;99.90;;;;;;5029384;28;20118;-75
2023/12/12 09:00:20;;;;;;;42.55;26.33;;;5.80;99.90;;;;;;5035843;28;20048;-76
2023/12/12 09:02:45;;;;;;;40.75;26.48;;;5.80;99.90;;;;;;5053761;28;20122;-75
2023/12/12 09:05:11;;;;;;;37.72;24.52;;;5.90;99.90;;;;;;5035484;28;20473;-75
2023/12/12 09:07:36;;;;;;;40.35;25.52;;;5.90;99.90;;;;;;5033028;28;20442;-76
2023/12/12 09:10:03;;;;;;;44.28;24.75;;;5.90;99.90;;;;;;5053529;28;20041;-76
2023/12/12 09:12:29;;;;;;;34.55;23.83;;;5.90;99.90;;;;;;5053565;28;20029;-75
2023/12/12 09:14:55;;;;;;;34.42;23.08;;;5.90;99.90;;;;;;5028796;28;20048;-76
2023/12/12 09:17:20;;;;;;;36.45;24.77;;;5.90;99.90;;;;;;5032659;28;20045;-75
2023/12/12 09:19:46;;;;;;;40.97;27.20;;;6.00;99.90;;;;;;5030970;28;20036;-76
2023/12/12 09:22:11;;;;;;;41.13;28.00;;;5.90;99.90;;;;;;5029713;28;20713;-74
2023/12/12 09:24:37;;;;;;;40.72;25.80;;;6.00;99.90;;;;;;5027432;28;20060;-74
2023/12/12 09:27:03;;;;;;;39.50;23.30;;;6.00;99.90;;;;;;5035479;28;20068;-75
2023/12/12 09:29:29;;;;;;;36.40;23.20;;;6.00;99.90;;;;;;5052657;28;20037;-75
2023/12/12 09:31:56;;;;;;;34.22;23.42;;;6.00;99.90;;;;;;5043474;28;20497;-74
2023/12/12 09:34:23;;;;;;;41.53;26.50;;;6.10;99.90;;;;;;5033031;28;20033;-76
2023/12/12 09:36:51;;;;;;;38.45;23.67;;;6.00;99.90;;;;;;5016504;28;20481;-75
2023/12/12 09:39:17;;;;;;;35.17;23.85;;;6.10;99.90;;;;;;5034041;28;20037;-75
2023/12/12 09:41:49;;;;;;;36.78;23.25;;;6.10;99.90;;;;;;5051432;28;20508;-75
2023/12/12 09:44:16;;;;;;;35.58;22.77;;;6.10;99.90;;;;;;5033223;28;20382;-75
2023/12/12 09:46:45;;;;;;;34.90;22.02;;;6.10;99.90;;;;;;5052533;22;20069;-73
2023/12/12 09:49:13;;;;;;;38.40;26.77;;;6.20;99.90;;;;;;5040580;28;20068;-74
2023/12/12 09:51:41;;;;;;;44.90;28.20;;;6.20;99.90;;;;;;5047890;28;20486;-73
2023/12/12 09:54:07;;;;;;;38.22;26.42;;;6.20;99.90;;;;;;5045529;28;20037;-74
2023/12/12 09:56:37;;;;;;;45.60;29.88;;;6.20;99.90;;;;;;5034951;28;20389;-75
2023/12/12 09:59:03;;;;;;;39.45;26.52;;;6.30;99.90;;;;;;5045587;28;20036;-75
2023/12/12 10:01:33;;;;;;;39.95;27.02;;;6.30;99.90;;;;;;5051134;28;20039;-73
2023/12/12 10:04:02;;;;;;;46.83;30.48;;;6.30;99.90;;;;;;5019174;28;20044;-73
2023/12/12 10:06:32;;;;;;;47.70;30.95;;;6.30;99.90;;;;;;5034672;28;20049;-73
2023/12/12 10:08:58;;;;;;;49.45;27.88;;;6.60;99.90;;;;;;5051805;28;20032;-73
2023/12/12 10:11:24;;;;;;;40.30;24.45;;;6.40;99.90;;;;;;5026795;28;20033;-73
2023/12/12 10:13:53;;;;;;;42.03;27.02;;;6.40;99.90;;;;;;5034945;28;20612;-72
2023/12/12 10:16:19;;;;;;;39.83;26.02;;;6.40;99.90;;;;;;5032324;28;20076;-72
2023/12/12 10:18:46;;;;;;;40.67;24.95;;;6.40;99.90;;;;;;5027667;28;20084;-73
2023/12/12 10:21:24;;;;;;;39.85;24.85;;;6.50;99.90;;;;;;5042436;28;20049;-72
2023/12/12 10:23:51;;;;;;;41.38;25.75;;;6.50;99.90;;;;;;5008638;28;20041;-73
2023/12/12 10:26:32;;;;;;;40.67;23.50;;;6.50;99.90;;;;;;5044658;28;20469;-73
2023/12/12 10:28:59;;;;;;;38.80;24.25;;;6.50;99.90;;;;;;5030534;28;20037;-73
2023/12/12 10:31:25;;;;;;;38.20;23.45;;;6.60;99.90;;;;;;5013714;28;20112;-73
2023/12/12 10:33:52;;;;;;;38.28;24.52;;;6.60;99.90;;;;;;5052735;28;20037;-73
2023/12/12 10:36:17;;;;;;;36.67;23.17;;;6.60;99.90;;;;;;5046673;28;20036;-74
2023/12/12 10:38:44;;;;;;;34.47;22.65;;;6.60;99.90;;;;;;5032813;28;20041;-73
2023/12/12 10:41:11;;;;;;;40.58;24.40;;;6.70;99.90;;;;;;5049094;28;20050;-73
2023/12/12 10:43:41;;;;;;;33.28;21.02;;;6.70;99.90;;;;;;5048150;28;20421;-74
2023/12/12 10:46:18;;;;;;;35.63;21.35;;;6.80;99.90;;;;;;5021983;28;20075;-73
2023/12/12 10:48:47;;;;;;;29.67;20.83;;;6.80;99.90;;;;;;5041199;28;20041;-73
2023/12/12 10:51:17;;;;;;;36.50;21.58;;;6.80;99.90;;;;;;5014310;28;20056;-74
2023/12/12 10:53:45;;;;;;;39.30;20.85;;;6.90;99.90;;;;;;5049476;28;20440;-74
2023/12/12 10:56:12;;;;;;;79.30;51.53;;;6.90;99.90;;;;;;5033022;28;20056;-74
2023/12/12 10:58:40;;;;;;;66.68;42.58;;;6.90;99.90;;;;;;5042679;28;20049;-73
2023/12/12 11:01:08;;;;;;;65.13;41.90;;;6.90;99.90;;;;;;5026530;28;20044;-73
2023/12/12 11:03:38;;;;;;;50.60;32.15;;;7.00;99.90;;;;;;5026657;28;20037;-73
2023/12/12 11:06:05;;;;;;;39.92;24.45;;;7.00;99.90;;;;;;5033698;28;20044;-73
2023/12/12 11:08:31;;;;;;;41.72;20.90;;;7.00;99.90;;;;;;5051106;28;20033;-73
2023/12/12 11:11:09;;;;;;;38.72;20.33;;;7.00;99.90;;;;;;5043202;28;20087;-73
2023/12/12 11:13:40;;;;;;;40.20;19.30;;;7.10;99.90;;;;;;5034321;28;20118;-73
2023/12/12 11:16:09;;;;;;;43.20;20.65;;;7.10;99.90;;;;;;5028051;28;20036;-74
2023/12/12 11:18:39;;;;;;;37.60;19.25;;;7.10;99.90;;;;;;5033002;28;20048;-74
2023/12/12 11:21:05;;;;;;;38.00;18.55;;;7.10;99.90;;;;;;5044243;28;20112;-74
2023/12/12 11:23:54;;;;;;;37.13;18.27;;;7.20;99.90;;;;;;5043945;28;20090;-73
2023/12/12 11:26:23;;;;;;;41.95;19.02;;;7.20;99.90;;;;;;5027029;28;20037;-74
2023/12/12 11:28:49;;;;;;;40.85;18.90;;;7.20;99.90;;;;;;5014388;28;20048;-74
2023/12/12 11:31:25;;;;;;;38.58;19.05;;;7.20;99.90;;;;;;5043348;28;20397;-74
2023/12/12 11:34:07;;;;;;;37.83;17.88;;;7.20;99.90;;;;;;5032797;28;20044;-73
2023/12/12 11:36:52;;;;;;;43.83;18.48;;;7.20;99.90;;;;;;5038601;28;20037;-73
2023/12/12 11:39:30;;;;;;;43.00;19.15;;;7.20;99.90;;;;;;5038555;28;20041;-74
2023/12/12 11:42:02;;;;;;;51.53;28.13;;;7.30;99.90;;;;;;5039703;28;20044;-75
2023/12/12 11:44:54;;;;;;;44.65;26.55;;;7.20;99.90;;;;;;5047766;28;20140;-76
2023/12/12 11:47:21;;;;;;;39.22;20.88;;;7.30;99.90;;;;;;5037171;28;20041;-73
2023/12/12 11:49:47;;;;;;;44.28;23.35;;;7.30;99.90;;;;;;5027330;28;20052;-75
2023/12/12 11:52:38;;;;;;;53.42;23.48;;;7.30;99.90;;;;;;5034403;28;20041;-74
2023/12/12 11:55:05;;;;;;;46.70;24.02;;;7.40;99.90;;;;;;5040741;28;20453;-74
2023/12/12 11:57:30;;;;;;;44.25;22.90;;;7.40;99.90;;;;;;5022199;28;20452;-74
2023/12/12 12:00:00;;;;;;;50.05;24.27;;;7.50;99.90;;;;;;5028477;28;20045;-75
2023/12/12 12:02:29;;;;;;;49.70;22.92;;;7.50;99.90;;;;;;5022431;28;20186;-75
2023/12/12 12:04:55;;;;;;;46.58;21.70;;;7.50;99.90;;;;;;5044494;28;20529;-75
2023/12/12 12:07:21;;;;;;;46.25;20.33;;;7.50;99.90;;;;;;5023550;28;20124;-73
2023/12/12 12:09:52;;;;;;;50.28;21.38;;;7.50;99.90;;;;;;5021607;28;20038;-75
2023/12/12 12:42:21;;;;;;;77.93;31.65;;;7.60;99.90;;;;;;5080560;27;20984;-63
2023/12/12 12:44:46;;;;;;;65.80;28.25;;;7.80;99.90;;;;;;5093909;22;20029;-64
2023/12/12 12:47:12;;;;;;;64.40;27.15;;;7.80;99.90;;;;;;5076704;28;20128;-61
2023/12/12 12:49:37;;;;;;;69.93;26.52;;;7.80;99.90;;;;;;5081650;28;20036;-63
2023/12/12 12:52:03;;;;;;;54.05;25.48;;;7.80;99.90;;;;;;5079773;28;20037;-63
2023/12/12 12:54:29;;;;;;;56.63;25.67;;;7.80;99.90;;;;;;5080915;28;20039;-63
2023/12/12 12:56:54;;;;;;;54.47;24.75;;;7.80;99.90;;;;;;5082381;28;20473;-60
2023/12/12 12:59:21;;;;;;;57.40;26.25;;;7.80;99.90;;;;;;5081820;28;20051;-62
2023/12/12 13:01:47;;;;;;;62.10;26.02;;;7.80;99.90;;;;;;5079110;28;20094;-63
2023/12/12 13:04:12;;;;;;;65.72;27.00;;;7.80;99.90;;;;;;5082400;28;20047;-61
2023/12/12 13:06:39;;;;;;;62.40;26.67;;;7.70;99.90;;;;;;5078038;28;20036;-60
2023/12/12 13:09:09;;;;;;;58.78;26.42;;;7.80;99.90;;;;;;5076364;28;20407;-65
2023/12/12 13:11:36;;;;;;;63.58;28.50;;;7.80;99.90;;;;;;5053685;28;20488;-67